Time;durP1;ratioP1;P1;durP2;ratioP2;P2;SDS_P1;SDS_P2;PMS_P1;PMS_P2;Temp;Humidity;BMP_temperature;BMP_pressure;BME280_temperature;BME280_humidity;BME280_pressure;Samples;Min_cycle;Max_cycle;Signal;HPM_P1;HPM_P2
2022/04/27 00:00:36;;;;;;;2.73;2.20;;;7.60;99.90;7.40;100897.00;;;;4994449;28;117766;-65
2022/04/27 00:03:04;;;;;;;3.07;2.07;;;7.50;99.90;7.30;100908.00;;;;4988324;28;88576;-66
2022/04/27 00:05:31;;;;;;;2.87;2.30;;;7.50;99.90;7.30;100899.00;;;;4974188;28;101182;-65
2022/04/27 00:07:57;;;;;;;4.27;2.03;;;7.40;99.90;7.20;100901.00;;;;4975230;28;87792;-66
2022/04/27 00:10:24;;;;;;;3.07;2.23;;;7.30;99.90;7.20;100903.00;;;;4975443;28;88042;-65
2022/04/27 00:12:51;;;;;;;2.90;2.20;;;7.30;99.90;7.10;100893.00;;;;4976095;28;88697;-65
2022/04/27 00:15:17;;;;;;;5.87;2.33;;;7.20;99.90;7.10;100891.00;;;;4975287;28;87711;-65
2022/04/27 00:17:42;;;;;;;2.60;2.40;;;7.20;99.90;7.00;100897.00;;;;4975507;28;87892;-66
2022/04/27 00:20:09;;;;;;;3.10;2.40;;;7.40;99.90;6.90;100892.00;;;;4981595;28;90047;-65
2022/04/27 00:22:36;;;;;;;4.13;2.53;;;7.80;99.90;6.80;100899.00;;;;5009682;27;88549;-65
2022/04/27 00:25:04;;;;;;;2.83;2.50;;;7.00;99.90;6.70;100892.00;;;;4995024;28;87708;-66
2022/04/27 00:27:31;;;;;;;4.17;2.67;;;6.90;99.90;6.70;100889.00;;;;4987980;28;87475;-65
2022/04/27 00:29:58;;;;;;;3.37;2.60;;;6.90;99.90;6.60;100895.00;;;;4973948;28;89413;-65
2022/04/27 00:32:25;;;;;;;2.30;2.07;;;6.80;99.90;6.60;100900.00;;;;4974110;28;108776;-65
2022/04/27 00:34:51;;;;;;;2.47;2.27;;;6.90;99.90;6.50;100894.00;;;;4994378;28;94101;-65
2022/04/27 00:37:18;;;;;;;3.53;2.90;;;6.70;99.90;6.50;100898.00;;;;4994613;28;100732;-65
2022/04/27 00:39:44;;;;;;;4.40;3.47;;;6.70;99.90;6.40;100900.00;;;;4995198;27;89064;-65
2022/04/27 00:42:20;;;;;;;4.37;3.10;;;6.60;99.90;6.30;100897.00;;;;4997648;28;111122;-66
2022/04/27 00:44:46;;;;;;;4.20;2.93;;;6.50;99.90;6.30;100902.00;;;;4976947;28;87973;-65
2022/04/27 00:47:13;;;;;;;3.57;2.70;;;6.50;99.90;6.20;100905.00;;;;4978857;28;86894;-65
2022/04/27 00:49:46;;;;;;;5.07;3.03;;;6.40;99.90;6.10;100906.00;;;;4997279;28;106900;-66
2022/04/27 00:52:13;;;;;;;3.97;2.63;;;6.70;99.90;6.10;100912.00;;;;4996813;28;88397;-65
2022/04/27 00:54:41;;;;;;;2.93;2.63;;;6.20;99.90;6.00;100908.00;;;;4980101;28;88664;-66
2022/04/27 00:57:08;;;;;;;3.23;2.93;;;6.40;99.90;5.90;100908.00;;;;4993521;28;87860;-65
2022/04/27 00:59:34;;;;;;;3.67;1.97;;;6.10;99.90;5.90;100912.00;;;;4978290;28;87842;-66
2022/04/27 01:02:01;;;;;;;4.07;2.93;;;6.40;99.90;5.90;100922.00;;;;4977927;28;109459;-66
2022/04/27 01:04:27;;;;;;;3.03;2.63;;;6.00;99.90;5.90;100924.00;;;;4992074;28;87840;-65
2022/04/27 01:06:53;;;;;;;3.27;2.90;;;6.40;99.90;5.80;100919.00;;;;4998110;28;98442;-65
2022/04/27 01:09:19;;;;;;;5.07;3.07;;;6.00;99.90;5.80;100908.00;;;;4996697;28;117996;-66
2022/04/27 01:11:45;;;;;;;4.23;3.20;;;6.00;99.90;5.70;100909.00;;;;4998499;28;87007;-65
2022/04/27 01:14:11;;;;;;;2.80;2.60;;;5.90;99.90;5.60;100912.00;;;;4982112;28;110870;-65
2022/04/27 01:16:37;;;;;;;8.50;1.97;;;5.80;99.90;5.60;100912.00;;;;4992471;28;108030;-66
2022/04/27 01:19:04;;;;;;;2.47;2.27;;;5.80;99.90;5.50;100924.00;;;;4976672;28;89746;-65
2022/04/27 01:21:30;;;;;;;5.60;2.70;;;5.80;99.90;5.50;100920.00;;;;4996843;28;88681;-66
2022/04/27 01:23:56;;;;;;;2.97;2.60;;;5.70;99.90;5.50;100921.00;;;;4995863;27;111119;-65
2022/04/27 01:26:21;;;;;;;3.60;3.07;;;6.00;99.90;5.40;100932.00;;;;4998809;28;87754;-66
2022/04/27 01:28:47;;;;;;;2.77;2.17;;;5.60;99.90;5.40;100928.00;;;;4979139;28;88836;-65
2022/04/27 01:31:14;;;;;;;3.30;2.50;;;5.60;99.90;5.30;100933.00;;;;4977004;28;116506;-66
2022/04/27 01:33:40;;;;;;;4.47;3.13;;;5.60;99.90;5.30;100937.00;;;;4984908;28;87879;-65
2022/04/27 01:36:10;;;;;;;4.47;2.90;;;5.70;99.90;5.30;100932.00;;;;4998186;28;87012;-65
2022/04/27 01:38:39;;;;;;;4.77;2.37;;;5.50;99.90;5.30;100940.00;;;;4994906;28;88207;-65
2022/04/27 01:41:06;;;;;;;5.53;3.23;;;5.50;99.90;5.20;100935.00;;;;4977179;28;107707;-66
2022/04/27 01:43:32;;;;;;;5.60;3.10;;;5.50;99.90;5.30;100935.00;;;;4974660;28;91191;-65
2022/04/27 01:45:58;;;;;;;4.40;2.73;;;5.40;99.90;5.30;100936.00;;;;4977728;28;87886;-66
2022/04/27 01:48:24;;;;;;;4.10;2.83;;;5.40;99.90;5.30;100937.00;;;;4977737;28;88434;-65
2022/04/27 01:50:50;;;;;;;6.23;3.83;;;5.40;99.90;5.30;100937.00;;;;4976684;28;87703;-66
2022/04/27 01:56:00;;;;;;;3.53;3.20;;;5.90;99.90;5.20;100942.00;;;;4980920;28;87649;-66
2022/04/27 01:58:26;;;;;;;3.80;2.83;;;5.40;99.90;5.30;100932.00;;;;4996175;27;88685;-65
2022/04/27 02:00:52;;;;;;;4.33;3.13;;;5.40;99.90;5.30;100922.00;;;;4977249;28;117037;-67
2022/04/27 02:03:19;;;;;;;3.70;3.37;;;5.40;99.90;5.30;100934.00;;;;4980303;28;87776;-65
2022/04/27 02:05:45;;;;;;;5.63;3.73;;;5.80;99.90;5.40;100939.00;;;;4997417;28;87697;-65
2022/04/27 02:08:11;;;;;;;6.20;3.67;;;5.50;99.90;5.40;100951.00;;;;4996147;28;89838;-65
2022/04/27 02:10:38;;;;;;;4.53;3.63;;;5.70;99.90;5.50;100949.00;;;;4995647;28;119604;-66
2022/04/27 02:13:06;;;;;;;4.03;2.70;;;5.90;99.90;5.50;100944.00;;;;4995202;28;98767;-65
2022/04/27 02:15:32;;;;;;;3.93;3.13;;;5.70;99.90;5.50;100943.00;;;;4976518;28;101917;-66
2022/04/27 02:17:59;;;;;;;8.43;3.00;;;5.70;99.90;5.60;100950.00;;;;4991016;28;107261;-66
2022/04/27 02:20:25;;;;;;;3.10;2.57;;;5.70;99.90;5.60;100943.00;;;;4985914;28;88115;-66
2022/04/27 02:22:51;;;;;;;5.37;3.67;;;5.70;99.90;5.60;100941.00;;;;4993722;28;110038;-66
2022/04/27 02:25:18;;;;;;;4.33;3.00;;;5.90;99.90;5.60;100942.00;;;;4995360;28;94609;-66
2022/04/27 02:27:44;;;;;;;3.40;2.40;;;5.80;99.90;5.60;100943.00;;;;4987310;28;109418;-65
2022/04/27 02:30:11;;;;;;;3.97;2.97;;;5.80;99.90;5.60;100943.00;;;;4975374;28;117624;-66
2022/04/27 02:32:38;;;;;;;6.63;3.37;;;5.70;99.90;5.60;100951.00;;;;4976176;28;88861;-66
2022/04/27 02:35:06;;;;;;;4.17;3.03;;;5.90;99.90;5.70;100951.00;;;;4993476;28;87763;-65
2022/04/27 02:37:32;;;;;;;5.03;2.73;;;5.80;99.90;5.70;100957.00;;;;4996736;28;88645;-67
2022/04/27 02:39:59;;;;;;;3.00;2.60;;;5.80;99.90;5.70;100959.00;;;;4996229;28;88325;-66
2022/04/27 02:42:25;;;;;;;4.83;2.40;;;5.90;99.90;5.80;100961.00;;;;4981737;28;87663;-66
2022/04/27 02:44:51;;;;;;;3.67;3.27;;;6.30;99.90;5.80;100960.00;;;;4990968;28;87740;-66
2022/04/27 02:47:18;;;;;;;4.03;3.17;;;6.00;99.90;5.90;100957.00;;;;4977920;28;88034;-66
2022/04/27 02:52:29;;;;;;;3.60;2.97;;;6.00;99.90;6.00;100965.00;;;;4994457;28;87894;-66
2022/04/27 02:54:55;;;;;;;9.17;2.97;;;6.50;99.90;6.00;100963.00;;;;4994833;28;87657;-66
2022/04/27 02:57:21;;;;;;;4.87;3.50;;;6.10;99.90;6.00;100985.00;;;;4994874;28;89697;-66
2022/04/27 02:59:48;;;;;;;4.10;3.50;;;6.10;99.90;6.00;100967.00;;;;4996076;28;88693;-65
2022/04/27 03:02:14;;;;;;;3.90;2.50;;;6.20;99.90;6.10;100971.00;;;;4995466;28;90521;-65
2022/04/27 03:04:40;;;;;;;3.33;2.33;;;6.20;99.90;6.10;100963.00;;;;4995666;28;100326;-66
2022/04/27 03:07:06;;;;;;;5.10;3.57;;;6.20;99.90;6.10;100971.00;;;;4979202;28;95671;-65
2022/04/27 03:09:32;;;;;;;4.37;3.13;;;6.20;99.90;6.00;100971.00;;;;4988484;28;88134;-66
2022/04/27 03:11:58;;;;;;;6.80;3.23;;;6.20;99.90;6.00;100970.00;;;;4996268;28;87677;-65
2022/04/27 03:14:24;;;;;;;2.97;2.47;;;6.10;99.90;6.00;100972.00;;;;4995470;28;108413;-65
2022/04/27 03:16:51;;;;;;;6.07;3.70;;;6.10;99.90;6.00;100972.00;;;;4993781;28;105598;-65
2022/04/27 03:19:16;;;;;;;3.70;2.93;;;6.60;99.90;5.90;100983.00;;;;4995444;28;88333;-65
2022/04/27 03:21:42;;;;;;;4.67;3.43;;;6.10;99.90;5.90;100976.00;;;;4994629;28;110579;-66
2022/04/27 03:24:08;;;;;;;4.50;2.77;;;6.00;99.90;5.80;100980.00;;;;4980521;28;87836;-65
2022/04/27 03:26:34;;;;;;;3.00;2.77;;;5.90;99.90;5.80;100980.00;;;;4977852;28;107387;-65
2022/04/27 03:28:59;;;;;;;3.37;3.07;;;6.00;99.90;5.70;100977.00;;;;4974995;28;114561;-65
2022/04/27 03:31:25;;;;;;;3.43;3.10;;;5.90;99.90;5.70;100979.00;;;;4974919;28;103651;-65
2022/04/27 03:33:51;;;;;;;3.47;2.70;;;5.90;99.90;5.60;100981.00;;;;4975722;28;88192;-66
2022/04/27 03:36:17;;;;;;;3.53;3.17;;;6.00;99.90;5.60;100985.00;;;;4972852;28;111906;-66
2022/04/27 03:38:43;;;;;;;4.50;3.10;;;5.80;99.90;5.60;100984.00;;;;4995137;28;115525;-65
2022/04/27 03:41:10;;;;;;;5.30;3.30;;;5.80;99.90;5.60;100987.00;;;;4994462;28;110441;-65
2022/04/27 03:43:36;;;;;;;2.73;2.43;;;5.70;99.90;5.60;100993.00;;;;4995600;28;87630;-65
2022/04/27 03:46:02;;;;;;;4.53;3.80;;;5.70;99.90;5.60;100991.00;;;;4994024;28;119915;-65
2022/04/27 03:48:28;;;;;;;4.50;2.70;;;5.70;99.90;5.70;100987.00;;;;4992930;28;89491;-65
2022/04/27 03:50:53;;;;;;;4.67;3.07;;;5.80;99.90;5.70;100998.00;;;;4994939;28;112567;-65
2022/04/27 03:53:19;;;;;;;4.90;2.83;;;5.90;99.90;5.80;101001.00;;;;4994395;28;109960;-65
2022/04/27 03:55:46;;;;;;;5.20;2.90;;;5.90;99.90;5.80;101011.00;;;;4994595;28;117146;-65
2022/04/27 03:58:12;;;;;;;3.10;2.70;;;5.90;99.90;5.80;101007.00;;;;4994797;27;89505;-66
2022/04/27 04:00:37;;;;;;;4.90;3.33;;;5.90;99.90;5.90;101015.00;;;;4994043;28;112053;-65
2022/04/27 04:03:04;;;;;;;4.93;3.30;;;6.40;99.90;6.00;101021.00;;;;4994343;28;108362;-66
2022/04/27 04:05:30;;;;;;;3.73;3.23;;;6.10;99.90;6.00;101020.00;;;;4994508;28;104515;-65
2022/04/27 04:07:56;;;;;;;4.13;3.73;;;6.40;99.90;6.10;101019.00;;;;4994035;28;89040;-65
2022/04/27 04:10:23;;;;;;;9.17;6.33;;;6.20;99.90;6.10;101021.00;;;;4995243;28;88770;-65
2022/04/27 04:12:48;;;;;;;8.10;5.10;;;6.20;99.90;6.20;101023.00;;;;4994124;28;98803;-66
2022/04/27 04:15:14;;;;;;;7.93;4.50;;;6.30;99.90;6.20;101024.00;;;;4983331;27;88587;-65
2022/04/27 04:17:44;;;;;;;6.13;3.97;;;6.40;99.90;6.30;101031.00;;;;4987705;28;97943;-66
2022/04/27 04:20:17;;;;;;;6.37;3.47;;;6.40;99.90;6.30;101034.00;;;;4996244;28;87975;-66
2022/04/27 04:22:45;;;;;;;6.03;3.73;;;6.40;99.90;6.30;101042.00;;;;4997110;27;87695;-66
2022/04/27 04:30:41;;;;;;;3.77;3.10;;;6.70;99.90;6.30;101049.00;;;;4978239;28;87862;-66
2022/04/27 04:33:07;;;;;;;5.83;2.97;;;6.50;99.90;6.30;101050.00;;;;4977870;28;102015;-65
2022/04/27 04:35:34;;;;;;;6.27;3.90;;;6.40;99.90;6.30;101054.00;;;;4977094;28;119060;-65
2022/04/27 04:37:59;;;;;;;4.60;2.47;;;6.40;99.90;6.40;101054.00;;;;4989713;28;89059;-66
2022/04/27 04:40:25;;;;;;;4.47;2.80;;;6.70;99.90;6.50;101062.00;;;;4997414;28;111276;-66
2022/04/27 04:42:52;;;;;;;3.67;2.50;;;6.80;99.90;6.50;101066.00;;;;4997383;28;108625;-65
2022/04/27 04:45:18;;;;;;;6.87;3.67;;;6.60;99.90;6.60;101062.00;;;;4996120;28;88968;-65
2022/04/27 04:47:44;;;;;;;4.67;3.40;;;6.80;99.90;6.60;101066.00;;;;4986482;28;107431;-65
2022/04/27 04:50:11;;;;;;;5.30;2.93;;;6.70;99.90;6.70;101074.00;;;;4995504;28;110628;-65
2022/04/27 04:52:37;;;;;;;3.80;3.33;;;6.80;99.90;6.80;101068.00;;;;4998350;28;86861;-65
2022/04/27 04:55:03;;;;;;;6.90;3.63;;;6.80;99.90;6.80;101078.00;;;;4997515;28;90955;-65
2022/04/27 04:57:29;;;;;;;3.10;2.80;;;6.90;99.90;6.80;101081.00;;;;4993173;27;109295;-66
2022/04/27 04:59:56;;;;;;;7.13;3.13;;;6.90;99.90;6.90;101103.00;;;;4997103;28;91796;-66
2022/04/27 05:02:21;;;;;;;7.27;3.53;;;6.90;99.90;6.90;101104.00;;;;4997547;28;90064;-65
2022/04/27 05:04:47;;;;;;;5.13;4.10;;;7.00;99.90;6.90;101109.00;;;;4997149;28;117867;-65
2022/04/27 05:07:13;;;;;;;5.07;3.43;;;7.00;99.90;7.00;101095.00;;;;4982017;28;117896;-66
2022/04/27 05:09:39;;;;;;;6.47;3.23;;;7.00;99.90;7.00;101101.00;;;;4996159;28;110684;-65
2022/04/27 05:12:05;;;;;;;5.77;3.67;;;7.10;99.90;7.00;101104.00;;;;4998055;28;87641;-66
2022/04/27 05:14:31;;;;;;;6.97;3.77;;;7.10;99.90;7.00;101110.00;;;;4997283;28;87669;-65
2022/04/27 05:16:57;;;;;;;3.47;2.70;;;7.10;99.90;7.10;101109.00;;;;4996170;28;87615;-65
2022/04/27 05:19:23;;;;;;;5.57;3.50;;;7.10;99.90;7.10;101115.00;;;;4978097;28;90606;-66
2022/04/27 05:21:49;;;;;;;5.43;3.60;;;7.20;99.90;7.20;101127.00;;;;4996691;27;109640;-65
2022/04/27 05:24:15;;;;;;;4.70;3.13;;;7.20;99.90;7.20;101125.00;;;;4981690;28;110429;-65
2022/04/27 05:26:41;;;;;;;3.30;2.60;;;7.20;99.90;7.30;101136.00;;;;4976724;28;89787;-66
2022/04/27 05:31:54;;;;;;;4.83;3.27;;;7.50;99.90;7.40;101132.00;;;;4994469;28;87664;-65
2022/04/27 05:34:20;;;;;;;5.60;3.63;;;7.50;99.90;7.50;101131.00;;;;4996711;28;87976;-65
2022/04/27 05:36:46;;;;;;;3.93;3.03;;;7.50;99.90;7.60;101131.00;;;;4997249;28;87979;-65
2022/04/27 05:39:12;;;;;;;3.80;3.50;;;7.60;99.90;7.70;101143.00;;;;4978244;28;87674;-65
2022/04/27 05:41:38;;;;;;;5.13;3.57;;;7.70;99.90;7.70;101141.00;;;;4977316;28;108796;-65
2022/04/27 05:44:09;;;;;;;5.00;2.63;;;7.70;99.90;7.80;101157.00;;;;4976635;28;90076;-65
2022/04/27 05:46:36;;;;;;;3.83;3.30;;;7.80;99.90;7.90;101147.00;;;;4975840;28;88520;-65
2022/04/27 05:49:02;;;;;;;3.70;3.40;;;7.90;99.90;7.90;101166.00;;;;4993890;28;88988;-65
2022/04/27 05:51:27;;;;;;;3.43;2.67;;;7.90;99.90;8.00;101178.00;;;;4997377;28;92526;-65
2022/04/27 05:53:53;;;;;;;9.90;4.17;;;8.00;99.90;8.10;101169.00;;;;4996208;28;88030;-65
2022/04/27 05:56:19;;;;;;;5.97;3.17;;;8.10;99.90;8.10;101171.00;;;;4996670;28;116864;-66
2022/04/27 05:58:45;;;;;;;5.43;3.23;;;8.10;99.90;8.20;101178.00;;;;4996688;28;88125;-65
2022/04/27 06:01:11;;;;;;;7.33;4.23;;;8.20;99.90;8.20;101180.00;;;;4995721;28;102808;-65
2022/04/27 06:03:38;;;;;;;5.93;3.87;;;8.20;99.90;8.30;101184.00;;;;4995978;28;105253;-65
2022/04/27 06:06:04;;;;;;;5.03;2.97;;;8.30;99.90;8.40;101191.00;;;;4997036;28;108056;-65
2022/04/27 06:08:29;;;;;;;5.00;4.50;;;8.40;99.90;8.40;101199.00;;;;4984457;28;88009;-65
2022/04/27 06:10:55;;;;;;;5.07;4.47;;;8.40;99.90;8.50;101193.00;;;;4977359;28;87808;-66
2022/04/27 06:13:21;;;;;;;6.30;4.67;;;8.50;99.90;8.60;101199.00;;;;4993347;28;104515;-65
2022/04/27 06:15:46;;;;;;;4.23;3.50;;;8.60;99.90;8.70;101205.00;;;;4995888;28;118045;-65
2022/04/27 06:18:12;;;;;;;6.57;4.10;;;8.70;99.90;8.70;101193.00;;;;4986512;28;112049;-66
2022/04/27 06:20:38;;;;;;;6.63;4.73;;;8.70;99.90;8.70;101189.00;;;;4986162;28;107412;-65
2022/04/27 06:23:03;;;;;;;7.47;4.27;;;8.80;99.90;8.80;101202.00;;;;4993815;28;117612;-65
2022/04/27 06:25:30;;;;;;;7.27;4.73;;;8.70;99.90;8.80;101207.00;;;;4995810;28;87754;-66
2022/04/27 06:27:56;;;;;;;6.90;5.47;;;8.80;99.90;8.90;101199.00;;;;4993358;28;87959;-66
2022/04/27 06:30:24;;;;;;;7.33;5.40;;;8.90;99.90;8.90;101213.00;;;;4996143;28;108732;-65
2022/04/27 06:32:51;;;;;;;7.77;5.83;;;8.90;99.90;9.00;101213.00;;;;4996350;28;88807;-65
2022/04/27 06:35:17;;;;;;;6.67;4.13;;;9.00;99.90;9.00;101211.00;;;;4996092;28;87825;-65
2022/04/27 06:37:43;;;;;;;7.23;4.90;;;9.40;99.90;9.10;101211.00;;;;4989995;27;89052;-65
2022/04/27 06:40:10;;;;;;;7.27;4.27;;;9.10;99.90;9.10;101217.00;;;;4990936;28;88240;-65
2022/04/27 06:42:36;;;;;;;6.50;5.07;;;9.10;99.90;9.20;101216.00;;;;4976302;28;93697;-66
2022/04/27 06:45:04;;;;;;;6.63;4.33;;;9.20;99.90;9.30;101221.00;;;;4974435;28;115509;-65
2022/04/27 06:47:30;;;;;;;5.43;3.40;;;9.10;99.90;9.30;101227.00;;;;4979152;28;87561;-65
2022/04/27 06:49:56;;;;;;;6.73;4.03;;;9.30;99.90;9.40;101211.00;;;;4994735;28;109735;-65
2022/04/27 06:52:24;;;;;;;4.83;3.40;;;9.40;99.90;9.40;101219.00;;;;4982572;28;87904;-65
2022/04/27 06:54:50;;;;;;;5.07;3.53;;;9.40;99.90;9.50;101222.00;;;;4975079;28;117821;-65
2022/04/27 06:57:16;;;;;;;6.10;3.50;;;9.50;99.90;9.50;101233.00;;;;4990803;28;110118;-65
2022/04/27 06:59:41;;;;;;;7.40;4.23;;;9.50;99.90;9.60;101230.00;;;;4974751;28;108896;-65
2022/04/27 07:02:10;;;;;;;4.97;3.87;;;9.50;99.90;9.70;101238.00;;;;4974553;28;117369;-65
2022/04/27 07:04:36;;;;;;;4.50;3.67;;;9.70;99.90;9.80;101234.00;;;;4975723;28;88618;-66
2022/04/27 07:07:03;;;;;;;7.17;4.03;;;9.80;99.90;9.90;101235.00;;;;4975870;28;89218;-65
2022/04/27 07:09:31;;;;;;;3.70;3.30;;;9.80;99.90;10.00;101240.00;;;;4993171;28;94981;-65
2022/04/27 07:11:56;;;;;;;7.00;3.40;;;10.00;99.90;10.10;101248.00;;;;4995660;28;101698;-66
2022/04/27 07:14:23;;;;;;;4.27;3.47;;;10.10;99.90;10.30;101252.00;;;;4994896;28;88326;-66
2022/04/27 07:16:49;;;;;;;6.80;4.20;;;10.20;99.90;10.40;101242.00;;;;4996158;28;87979;-65
2022/04/27 07:19:14;;;;;;;5.27;3.67;;;10.30;99.90;10.60;101246.00;;;;4994988;28;107960;-65
2022/04/27 07:21:41;;;;;;;3.67;2.70;;;10.40;99.90;10.70;101244.00;;;;4994769;28;103122;-65
2022/04/27 07:24:07;;;;;;;5.70;3.80;;;10.60;99.90;10.90;101251.00;;;;4995253;28;88626;-66
2022/04/27 07:26:33;;;;;;;4.63;3.30;;;10.70;99.90;11.00;101254.00;;;;4994762;28;96105;-65
2022/04/27 07:28:59;;;;;;;5.20;3.60;;;10.90;99.90;11.20;101252.00;;;;4975375;28;96755;-65
2022/04/27 07:31:26;;;;;;;5.30;3.90;;;11.00;99.90;11.30;101251.00;;;;4976847;28;88058;-65
2022/04/27 07:33:52;;;;;;;5.13;3.73;;;11.20;99.90;11.50;101258.00;;;;4974945;28;87756;-65
2022/04/27 07:36:18;;;;;;;3.77;3.37;;;11.30;99.90;11.60;101262.00;;;;4976229;28;88184;-65
2022/04/27 07:38:44;;;;;;;6.63;5.03;;;11.50;99.90;11.80;101260.00;;;;4974669;28;108141;-66
2022/04/27 07:41:10;;;;;;;4.00;3.53;;;11.60;99.90;11.90;101270.00;;;;4982960;28;117940;-65
2022/04/27 07:43:40;;;;;;;4.97;3.00;;;11.80;99.90;12.10;101275.00;;;;4995108;28;88587;-66
2022/04/27 07:46:08;;;;;;;7.67;4.27;;;11.90;99.90;12.30;101275.00;;;;4995409;28;87593;-65
2022/04/27 07:48:37;;;;;;;4.17;3.20;;;12.10;99.90;12.60;101285.00;;;;4995735;27;87714;-64
2022/04/27 07:51:06;;;;;;;4.00;3.23;;;12.40;99.90;12.90;101283.00;;;;4991321;28;88898;-66
2022/04/27 07:53:31;;;;;;;4.03;3.30;;;12.70;99.90;13.20;101286.00;;;;4978707;28;89658;-66
2022/04/27 07:55:57;;;;;;;4.20;3.10;;;13.00;99.90;13.50;101295.00;;;;4984812;28;88185;-66
2022/04/27 07:58:23;;;;;;;4.23;3.27;;;13.20;99.90;13.70;101295.00;;;;4998748;27;109392;-65
2022/04/27 08:00:49;;;;;;;4.60;2.80;;;13.50;99.90;14.00;101297.00;;;;4997779;28;88729;-65
2022/04/27 08:03:20;;;;;;;6.60;3.90;;;13.70;99.90;14.10;101306.00;;;;4998156;28;95327;-65
2022/04/27 08:05:46;;;;;;;4.37;3.43;;;13.90;99.90;14.10;101296.00;;;;4997377;28;109080;-65
2022/04/27 08:08:11;;;;;;;3.73;3.20;;;14.00;99.90;14.20;101305.00;;;;4996539;28;108776;-65
2022/04/27 08:10:37;;;;;;;4.77;3.50;;;14.10;99.90;14.40;101307.00;;;;4995140;28;88958;-65
2022/04/27 08:13:03;;;;;;;6.70;4.00;;;14.20;99.90;14.60;101313.00;;;;4977084;28;110774;-65
2022/04/27 08:15:29;;;;;;;4.30;2.85;;;14.40;99.90;14.70;101316.00;;;;4979037;28;110369;-65
2022/04/27 08:17:59;;;;;;;5.65;3.55;;;14.50;99.90;14.80;101310.00;;;;4998004;28;104708;-65
2022/04/27 08:23:24;;;;;;;3.67;3.03;;;14.70;98.60;15.10;101314.00;;;;4978048;28;87848;-66
2022/04/27 08:25:50;;;;;;;4.43;3.35;;;14.90;98.00;15.30;101317.00;;;;4977992;28;87918;-65
2022/04/27 08:28:22;;;;;;;5.47;3.20;;;15.00;94.70;15.40;101309.00;;;;4978409;28;92753;-65
2022/04/27 08:30:49;;;;;;;4.05;3.45;;;15.10;94.70;15.50;101319.00;;;;4981424;28;91125;-65
2022/04/27 08:33:16;;;;;;;3.83;2.97;;;15.20;94.10;15.60;101319.00;;;;4998837;28;88133;-65
2022/04/27 08:35:42;;;;;;;5.25;3.75;;;15.40;92.80;15.80;101330.00;;;;4998015;28;90937;-65
2022/04/27 08:38:09;;;;;;;5.07;3.22;;;15.50;91.10;16.00;101326.00;;;;4998439;28;87775;-65
2022/04/27 08:40:38;;;;;;;6.05;3.00;;;15.70;90.60;16.10;101329.00;;;;4995833;28;89499;-66
2022/04/27 08:43:04;;;;;;;3.42;2.53;;;15.90;90.20;16.30;101338.00;;;;4978104;28;88867;-66
2022/04/27 08:45:32;;;;;;;3.28;2.67;;;16.00;87.70;16.40;101328.00;;;;4977348;28;94870;-65
2022/04/27 08:47:59;;;;;;;5.13;2.65;;;16.10;84.10;16.50;101332.00;;;;4978579;28;87534;-65
2022/04/27 08:50:27;;;;;;;2.95;2.38;;;16.30;82.90;16.70;101331.00;;;;4977791;28;88268;-66
2022/04/27 08:52:53;;;;;;;5.85;2.47;;;16.40;81.90;16.80;101335.00;;;;4996906;28;88091;-67
2022/04/27 08:55:20;;;;;;;6.65;2.58;;;16.50;80.20;16.90;101337.00;;;;4995871;28;88174;-66
2022/04/27 08:57:47;;;;;;;5.35;2.92;;;16.60;79.20;17.00;101335.00;;;;4998287;27;87173;-66
2022/04/27 09:00:15;;;;;;;3.47;2.67;;;16.70;76.40;17.10;101341.00;;;;4995305;27;88171;-66
2022/04/27 09:02:42;;;;;;;3.15;2.50;;;16.80;72.40;17.20;101341.00;;;;4996192;28;91077;-65
2022/04/27 09:05:20;;;;;;;2.17;1.98;;;16.90;72.70;17.30;101349.00;;;;4996789;28;88948;-67
2022/04/27 09:07:52;;;;;;;4.50;1.92;;;17.00;73.40;17.50;101346.00;;;;4997589;28;87546;-65
2022/04/27 09:10:22;;;;;;;2.72;1.80;;;17.30;71.40;17.70;101341.00;;;;4998226;28;88195;-66
2022/04/27 09:12:53;;;;;;;1.17;1.08;;;17.40;63.50;17.80;101347.00;;;;4977068;28;87883;-66
2022/04/27 09:15:26;;;;;;;1.98;1.52;;;17.50;63.50;17.90;101344.00;;;;4977784;28;87656;-66
2022/04/27 09:20:54;;;;;;;2.30;1.52;;;17.80;63.00;18.60;101352.00;;;;4962199;28;88027;-69
2022/04/27 09:23:37;;;;;;;2.85;1.77;;;18.20;61.60;18.90;101339.00;;;;4995675;28;87125;-69
2022/04/27 09:26:27;;;;;;;4.07;2.28;;;18.60;56.00;19.20;101344.00;;;;4997276;28;87586;-69
2022/04/27 09:28:53;;;;;;;1.92;1.73;;;18.80;55.20;19.50;101343.00;;;;4978706;28;87707;-69
2022/04/27 09:31:33;;;;;;;1.35;1.25;;;19.00;54.90;19.80;101338.00;;;;4982019;28;88947;-69
2022/04/27 09:34:02;;;;;;;1.30;1.20;;;19.30;54.10;20.10;101345.00;;;;4991473;27;88894;-69
2022/04/27 09:36:28;;;;;;;2.00;1.77;;;19.60;52.60;20.40;101336.00;;;;4977776;28;87753;-69
2022/04/27 09:38:57;;;;;;;2.05;1.67;;;20.00;52.70;20.80;101333.00;;;;4976800;28;88664;-69
2022/04/27 09:41:41;;;;;;;3.70;1.63;;;20.30;51.90;21.10;101338.00;;;;4980969;28;87964;-69
2022/04/27 09:44:28;;;;;;;2.90;1.55;;;20.60;48.60;21.40;101331.00;;;;4996739;28;87942;-68
2022/04/27 09:46:54;;;;;;;1.60;1.35;;;20.90;45.30;21.40;101333.00;;;;4995110;28;87777;-69
2022/04/27 09:49:20;;;;;;;2.97;1.30;;;21.00;43.30;21.40;101335.00;;;;4997932;28;86958;-69
2022/04/27 09:51:48;;;;;;;2.22;1.45;;;21.20;43.00;21.30;101332.00;;;;4987403;28;118098;-68
2022/04/27 09:54:28;;;;;;;2.05;1.60;;;21.00;41.10;21.40;101328.00;;;;4976778;28;88654;-68
2022/04/27 09:57:00;;;;;;;2.65;1.45;;;21.00;42.30;21.80;101322.00;;;;4989292;28;88439;-68
2022/04/27 09:59:34;;;;;;;3.30;1.58;;;21.20;41.70;22.00;101332.00;;;;4983755;27;87611;-69
2022/04/27 10:02:09;;;;;;;1.63;0.90;;;21.50;41.50;22.30;101327.00;;;;4986858;28;88697;-69
2022/04/27 10:04:38;;;;;;;2.25;1.45;;;21.70;42.00;22.50;101334.00;;;;4994292;28;103514;-69
2022/04/27 10:07:07;;;;;;;1.55;1.38;;;22.00;40.10;22.50;101337.00;;;;4996887;28;87797;-68
2022/04/27 10:09:33;;;;;;;2.17;1.67;;;22.00;39.80;22.20;101339.00;;;;4997239;28;87835;-69
2022/04/27 10:12:06;;;;;;;1.35;1.25;;;21.90;39.50;22.20;101342.00;;;;4986731;28;88115;-67
2022/04/27 10:14:32;;;;;;;2.25;1.58;;;21.70;40.80;22.30;101341.00;;;;4976523;28;88500;-67
2022/04/27 10:16:57;;;;;;;2.20;1.77;;;21.80;40.60;22.40;101339.00;;;;4976284;28;110541;-68
2022/04/27 10:19:24;;;;;;;1.48;1.17;;;21.90;41.00;22.80;101342.00;;;;4991670;27;108218;-68
2022/04/27 10:22:01;;;;;;;1.50;1.40;;;22.10;41.90;23.30;101344.00;;;;4983946;28;110319;-68
2022/04/27 10:24:41;;;;;;;2.55;1.20;;;22.60;41.70;23.80;101352.00;;;;4996201;28;89437;-68
2022/04/27 10:27:35;;;;;;;2.80;1.58;;;23.00;42.00;24.30;101349.00;;;;4992872;28;87529;-69
2022/04/27 10:30:10;;;;;;;2.17;1.25;;;23.50;42.10;24.70;101346.00;;;;4976500;28;87620;-69
2022/04/27 10:32:50;;;;;;;3.17;1.50;;;23.90;41.60;25.20;101347.00;;;;4995750;27;88167;-69
2022/04/27 10:35:33;;;;;;;1.70;1.23;;;24.30;41.30;25.30;101341.00;;;;4994166;28;88019;-69
2022/04/27 10:38:04;;;;;;;1.60;1.08;;;24.60;37.70;25.20;101340.00;;;;4993487;28;87710;-70
2022/04/27 10:40:39;;;;;;;1.30;1.10;;;24.60;38.50;25.20;101341.00;;;;4991582;28;86826;-69
2022/04/27 10:43:07;;;;;;;3.80;1.50;;;24.60;37.50;25.10;101335.00;;;;4993537;28;88150;-69
2022/04/27 10:45:41;;;;;;;2.58;1.17;;;24.60;36.60;24.80;101334.00;;;;4995191;28;110087;-69
2022/04/27 10:48:46;;;;;;;1.85;1.40;;;24.40;35.90;24.80;101333.00;;;;4975838;28;88630;-69
2022/04/27 10:51:11;;;;;;;1.52;1.30;;;24.30;36.80;25.10;101324.00;;;;4975641;28;87705;-69
2022/04/27 10:53:48;;;;;;;2.55;1.35;;;24.40;38.00;25.20;101326.00;;;;4974997;28;117659;-69
2022/04/27 10:56:25;;;;;;;1.40;1.00;;;24.60;36.10;25.40;101327.00;;;;4984322;28;88562;-69
2022/04/27 10:58:52;;;;;;;1.40;0.98;;;24.70;36.60;25.40;101328.00;;;;4993266;27;88102;-70
2022/04/27 11:01:31;;;;;;;1.30;1.20;;;24.80;36.70;25.30;101336.00;;;;4977333;28;87856;-69
2022/04/27 11:04:05;;;;;;;2.10;1.42;;;24.80;37.20;25.20;101335.00;;;;4975323;28;88735;-69
2022/04/27 11:07:10;;;;;;;1.73;1.52;;;24.70;37.70;25.00;101345.00;;;;4976250;28;88173;-69
2022/04/27 11:10:16;;;;;;;1.73;1.10;;;24.60;37.70;24.70;101348.00;;;;4990562;28;87734;-69
2022/04/27 11:12:46;;;;;;;2.05;0.90;;;24.40;38.00;24.40;101344.00;;;;4985849;28;87859;-69
2022/04/27 11:15:17;;;;;;;0.65;0.60;;;24.10;38.60;24.00;101347.00;;;;4993379;28;88726;-69
2022/04/27 11:17:43;;;;;;;1.33;1.00;;;23.70;38.60;23.60;101355.00;;;;4975202;28;87995;-69